createdAt,value
2019-01-30T00:01:02.078Z,-1.90
2019-01-30T00:03:31.334Z,-2.00
2019-01-30T00:06:00.727Z,-2.10
2019-01-30T00:08:32.122Z,-2.20
2019-01-30T00:11:01.355Z,-2.30
2019-01-30T00:13:32.303Z,-2.40
2019-01-30T00:16:01.937Z,-2.40
2019-01-30T00:18:31.710Z,-2.60
2019-01-30T00:21:00.822Z,-2.60
2019-01-30T00:23:32.354Z,-2.60
2019-01-30T00:26:02.172Z,-2.60
2019-01-30T00:28:31.882Z,-2.50
2019-01-30T00:31:01.018Z,-2.50
2019-01-30T00:33:30.632Z,-2.50
2019-01-30T00:35:59.643Z,-2.50
2019-01-30T00:38:28.930Z,-2.50
2019-01-30T00:40:58.320Z,-2.70
2019-01-30T00:43:29.900Z,-2.80
2019-01-30T00:45:59.412Z,-2.80
2019-01-30T00:48:29.731Z,-2.90
2019-01-30T00:50:59.437Z,-2.90
2019-01-30T00:53:28.533Z,-2.80
2019-01-30T00:56:01.807Z,-2.80
2019-01-30T00:58:30.301Z,-2.80
2019-01-30T01:00:59.597Z,-2.70
2019-01-30T01:03:30.518Z,-2.60
2019-01-30T01:06:00.256Z,-2.60
2019-01-30T01:08:29.965Z,-2.50
2019-01-30T01:10:59.343Z,-2.50
2019-01-30T01:13:29.846Z,-2.40
2019-01-30T01:15:59.214Z,-2.30
2019-01-30T01:18:28.573Z,-2.30
2019-01-30T01:20:57.896Z,-2.20
2019-01-30T01:23:27.868Z,-2.20
2019-01-30T01:25:57.012Z,-2.10
2019-01-30T01:28:28.477Z,-2.10
2019-01-30T01:30:58.071Z,-2.00
2019-01-30T01:33:28.326Z,-2.00
2019-01-30T01:35:57.815Z,-2.00
2019-01-30T01:38:28.034Z,-1.90
2019-01-30T01:40:57.634Z,-1.90
2019-01-30T01:43:26.847Z,-1.90
2019-01-30T01:45:55.918Z,-2.00
2019-01-30T01:48:25.194Z,-1.90
2019-01-30T01:50:54.159Z,-1.80
2019-01-30T01:53:23.457Z,-1.70
2019-01-30T01:55:52.890Z,-1.70
2019-01-30T01:58:22.165Z,-1.60
2019-01-30T02:00:52.105Z,-1.40
2019-01-30T02:03:21.148Z,-1.20
2019-01-30T02:05:51.578Z,-1.30
2019-01-30T02:08:21.284Z,-1.30
2019-01-30T02:10:51.128Z,-1.20
2019-01-30T02:13:20.604Z,-1.30
2019-01-30T02:16:11.289Z,-1.40
2019-01-30T02:18:40.532Z,-1.50
2019-01-30T02:21:10.660Z,-1.50
2019-01-30T02:23:39.776Z,-1.60
2019-01-30T02:26:09.662Z,-1.70
2019-01-30T02:28:39.441Z,-1.70
2019-01-30T02:31:08.440Z,-1.70
2019-01-30T02:33:37.755Z,-1.70
2019-01-30T02:36:09.762Z,-1.70
2019-01-30T02:38:38.810Z,-1.70
2019-01-30T02:41:08.642Z,-1.60
2019-01-30T02:43:38.652Z,-1.60
2019-01-30T02:46:07.966Z,-1.60
2019-01-30T02:48:37.348Z,-1.50
2019-01-30T02:51:06.874Z,-1.60
2019-01-30T02:53:36.306Z,-1.50
2019-01-30T02:56:05.777Z,-1.50
2019-01-30T02:58:34.805Z,-1.50
2019-01-30T03:01:04.252Z,-1.50
2019-01-30T03:03:34.575Z,-1.40
2019-01-30T03:06:04.083Z,-1.30
2019-01-30T03:08:33.227Z,-1.10
2019-01-30T03:11:03.195Z,-1.10
2019-01-30T03:13:32.513Z,-1.00
2019-01-30T03:16:01.951Z,-0.90
2019-01-30T03:18:32.178Z,-1.10
2019-01-30T03:21:02.111Z,-1.20
2019-01-30T03:23:34.226Z,-1.30
2019-01-30T03:26:03.856Z,-1.40
2019-01-30T03:28:32.831Z,-1.40
2019-01-30T03:31:16.754Z,-1.50
2019-01-30T03:33:35.392Z,-1.50
2019-01-30T03:36:04.770Z,-1.50
2019-01-30T03:38:33.670Z,-1.60
2019-01-30T03:41:02.857Z,-1.70
2019-01-30T03:43:32.097Z,-1.70
2019-01-30T03:46:01.197Z,-1.80
2019-01-30T03:48:31.023Z,-1.70
2019-01-30T03:51:00.550Z,-1.70
2019-01-30T03:53:30.521Z,-1.70
2019-01-30T03:56:00.266Z,-1.70
2019-01-30T03:58:29.313Z,-1.60
2019-01-30T04:01:00.898Z,-1.70
2019-01-30T04:03:30.307Z,-1.70
2019-01-30T04:06:02.938Z,-1.80
2019-01-30T04:08:32.216Z,-1.80
2019-01-30T04:11:01.591Z,-1.80
2019-01-30T04:13:31.372Z,-1.80
2019-01-30T04:16:01.041Z,-1.70
2019-01-30T04:18:30.812Z,-1.70
2019-01-30T04:20:59.897Z,-1.60
2019-01-30T04:23:30.298Z,-1.50
2019-01-30T04:25:59.865Z,-1.50
2019-01-30T04:28:28.979Z,-1.50
2019-01-30T04:30:58.947Z,-1.40
2019-01-30T04:33:28.646Z,-1.40
2019-01-30T04:35:57.663Z,-1.40
2019-01-30T04:38:26.955Z,-1.40
2019-01-30T04:40:56.080Z,-1.40
2019-01-30T04:43:25.602Z,-1.30
2019-01-30T04:45:54.943Z,-1.40
2019-01-30T04:48:23.885Z,-1.40
2019-01-30T04:50:55.817Z,-1.40
2019-01-30T04:53:25.141Z,-1.40
2019-01-30T04:55:55.123Z,-1.30
2019-01-30T04:58:24.327Z,-1.30
2019-01-30T05:00:55.064Z,-1.30
2019-01-30T05:03:24.785Z,-1.30
2019-01-30T05:05:55.806Z,-1.20
2019-01-30T05:08:24.957Z,-1.20
2019-01-30T05:10:54.553Z,-1.20
2019-01-30T05:13:24.425Z,-1.20
2019-01-30T05:15:53.438Z,-1.20
2019-01-30T05:18:22.524Z,-1.10
2019-01-30T05:20:52.441Z,-1.10
2019-01-30T05:23:22.604Z,-1.20
2019-01-30T05:25:53.120Z,-1.20
2019-01-30T05:28:22.146Z,-1.10
2019-01-30T05:30:51.517Z,-0.90
2019-01-30T05:33:23.129Z,-1.00
2019-01-30T05:35:52.507Z,-1.10
2019-01-30T05:38:21.854Z,-1.10
2019-01-30T05:40:51.186Z,-1.00
2019-01-30T05:43:24.045Z,-0.70
2019-01-30T05:45:53.888Z,0.00
2019-01-30T05:48:22.878Z,0.90
2019-01-30T05:50:52.351Z,1.70
2019-01-30T05:53:21.358Z,2.10
2019-01-30T05:55:51.632Z,2.30
2019-01-30T05:58:20.833Z,2.40
2019-01-30T06:00:50.176Z,2.40
2019-01-30T06:03:19.389Z,2.40
2019-01-30T06:05:51.868Z,2.40
2019-01-30T06:08:20.965Z,2.40
2019-01-30T06:10:50.182Z,2.30
2019-01-30T06:13:19.804Z,2.30
2019-01-30T06:15:49.534Z,2.40
2019-01-30T06:18:18.680Z,2.40
2019-01-30T06:20:48.109Z,2.40
2019-01-30T06:23:17.513Z,2.40
2019-01-30T06:25:47.196Z,2.40
2019-01-30T06:28:16.018Z,2.40
2019-01-30T06:30:45.038Z,2.30
2019-01-30T06:33:14.350Z,2.30
2019-01-30T06:35:43.870Z,2.20
2019-01-30T06:38:13.054Z,2.20
2019-01-30T06:40:42.306Z,2.10
2019-01-30T06:43:11.480Z,2.10
2019-01-30T06:45:40.626Z,2.10
2019-01-30T06:48:09.637Z,2.10
2019-01-30T06:50:39.058Z,2.10
2019-01-30T06:53:08.020Z,2.00
2019-01-30T06:55:37.059Z,2.00
2019-01-30T06:58:06.308Z,1.90
2019-01-30T07:00:35.357Z,1.90
2019-01-30T07:03:04.539Z,1.80
2019-01-30T07:05:34.052Z,1.80
2019-01-30T07:08:03.220Z,1.80
2019-01-30T07:10:32.277Z,1.70
2019-01-30T07:13:01.616Z,1.80
2019-01-30T07:15:30.731Z,1.80
2019-01-30T07:17:59.864Z,1.80
2019-01-30T07:20:31.182Z,1.80
2019-01-30T07:22:59.704Z,1.80
2019-01-30T07:25:28.799Z,1.80
2019-01-30T07:27:58.017Z,1.90
2019-01-30T07:30:35.078Z,2.00
2019-01-30T07:33:04.629Z,2.00
2019-01-30T07:35:33.733Z,2.00
2019-01-30T07:38:02.735Z,2.00
2019-01-30T07:40:31.957Z,2.00
2019-01-30T07:43:01.104Z,2.10
2019-01-30T07:45:30.351Z,2.10
2019-01-30T07:47:59.815Z,2.10
2019-01-30T07:50:29.651Z,2.10
2019-01-30T07:52:59.596Z,2.10
2019-01-30T07:55:28.871Z,2.10
2019-01-30T07:57:58.052Z,2.10
2019-01-30T08:00:29.609Z,2.10
2019-01-30T08:02:58.781Z,2.20
2019-01-30T08:05:28.246Z,2.30
2019-01-30T08:07:57.380Z,2.30
2019-01-30T08:10:26.571Z,2.30
2019-01-30T08:12:55.645Z,2.40
2019-01-30T08:15:24.890Z,2.40
2019-01-30T08:17:53.941Z,2.40
2019-01-30T08:20:23.878Z,2.50
2019-01-30T08:22:53.129Z,2.50
2019-01-30T08:25:23.800Z,2.50
2019-01-30T08:27:53.655Z,2.50
2019-01-30T08:30:27.410Z,2.50
2019-01-30T08:33:04.066Z,2.70
2019-01-30T08:35:28.984Z,2.50
2019-01-30T08:37:58.383Z,2.50
2019-01-30T08:40:27.905Z,2.50
2019-01-30T08:42:56.899Z,2.50
2019-01-30T08:45:27.833Z,2.50
2019-01-30T08:47:57.162Z,2.50
2019-01-30T08:50:27.177Z,2.60
2019-01-30T08:52:56.870Z,2.70
2019-01-30T08:55:26.449Z,2.80
2019-01-30T08:57:55.593Z,2.80
2019-01-30T09:00:25.827Z,2.90
2019-01-30T09:02:54.991Z,3.00
2019-01-30T09:05:24.473Z,3.10
2019-01-30T09:07:53.609Z,3.20
2019-01-30T09:10:23.825Z,3.10
2019-01-30T09:12:52.855Z,3.10
2019-01-30T09:15:22.862Z,3.10
2019-01-30T09:17:52.261Z,3.10
2019-01-30T09:20:22.678Z,3.10
2019-01-30T09:22:52.114Z,3.10
2019-01-30T09:25:22.997Z,3.10
2019-01-30T09:27:52.287Z,3.20
2019-01-30T09:30:26.763Z,3.10
2019-01-30T09:32:55.893Z,3.10
2019-01-30T09:35:25.328Z,3.10
2019-01-30T09:37:56.139Z,3.10
2019-01-30T09:40:25.430Z,3.10
2019-01-30T09:42:55.091Z,3.10
2019-01-30T09:45:24.961Z,3.00
2019-01-30T09:47:54.108Z,3.00
2019-01-30T09:50:23.411Z,2.90
2019-01-30T09:52:54.121Z,3.00
2019-01-30T09:55:23.533Z,3.00
2019-01-30T09:57:52.793Z,3.10
2019-01-30T10:00:27.888Z,3.10
2019-01-30T10:02:57.021Z,3.10
2019-01-30T10:05:26.314Z,3.10
2019-01-30T10:07:58.067Z,3.10
2019-01-30T10:10:29.515Z,3.20
2019-01-30T10:12:58.533Z,3.20
2019-01-30T10:15:30.348Z,3.40
2019-01-30T10:17:59.493Z,3.40
2019-01-30T10:20:28.989Z,3.30
2019-01-30T10:22:58.338Z,3.40
2019-01-30T10:25:27.939Z,3.40
2019-01-30T10:27:57.241Z,3.40
2019-01-30T10:30:31.723Z,3.40
2019-01-30T10:33:00.926Z,3.40
2019-01-30T10:35:30.021Z,3.30
2019-01-30T10:37:59.142Z,3.30
2019-01-30T10:40:28.334Z,3.20
2019-01-30T10:42:57.642Z,3.20
2019-01-30T10:45:26.942Z,3.10
2019-01-30T10:47:56.421Z,2.90
2019-01-30T10:50:26.422Z,2.80
2019-01-30T10:52:55.545Z,2.70
2019-01-30T10:55:26.401Z,2.50
2019-01-30T10:57:57.370Z,2.30
2019-01-30T11:00:29.055Z,2.20
2019-01-30T11:02:58.037Z,2.20
2019-01-30T11:05:28.059Z,2.20
2019-01-30T11:07:57.078Z,2.20
2019-01-30T11:10:26.191Z,2.30
2019-01-30T11:12:55.670Z,2.30
2019-01-30T11:15:25.817Z,2.40
2019-01-30T11:17:54.936Z,2.40
2019-01-30T11:20:24.489Z,2.40
2019-01-30T11:22:54.019Z,2.50
2019-01-30T11:25:28.993Z,2.60
2019-01-30T11:27:58.097Z,2.60
2019-01-30T11:30:28.669Z,2.60
2019-01-30T11:32:57.726Z,2.70
2019-01-30T11:35:26.924Z,2.60
2019-01-30T11:37:56.394Z,2.60
2019-01-30T11:40:26.105Z,2.50
2019-01-30T11:42:55.235Z,2.50
2019-01-30T11:45:35.731Z,2.50
2019-01-30T11:48:05.178Z,2.50
2019-01-30T11:50:34.290Z,2.50
2019-01-30T11:53:03.606Z,2.40
2019-01-30T11:55:32.726Z,2.40
2019-01-30T11:58:01.954Z,2.40
2019-01-30T12:00:47.356Z,2.50
2019-01-30T12:03:16.350Z,2.50
2019-01-30T12:05:46.883Z,2.50
2019-01-30T12:08:16.087Z,2.50
2019-01-30T12:10:45.290Z,2.40
2019-01-30T12:13:14.310Z,2.40
2019-01-30T12:15:43.671Z,2.50
2019-01-30T12:18:13.030Z,2.50
2019-01-30T12:20:42.229Z,2.60
2019-01-30T12:23:11.611Z,2.60
2019-01-30T12:25:40.617Z,2.60
2019-01-30T12:28:09.869Z,2.60
2019-01-30T12:30:38.961Z,2.60
2019-01-30T12:33:08.129Z,2.70
2019-01-30T12:35:37.180Z,2.70
2019-01-30T12:38:06.337Z,2.70
2019-01-30T12:40:35.397Z,2.80
2019-01-30T12:43:05.243Z,2.80
2019-01-30T12:45:35.157Z,2.80
2019-01-30T12:48:04.842Z,2.80
2019-01-30T12:50:34.059Z,2.80
2019-01-30T12:53:03.050Z,2.90
2019-01-30T12:55:32.152Z,2.90
2019-01-30T12:58:01.262Z,2.90
2019-01-30T13:00:33.006Z,2.80
2019-01-30T13:03:02.187Z,2.70
2019-01-30T13:05:31.891Z,2.80
2019-01-30T13:08:01.245Z,2.70
2019-01-30T13:10:30.499Z,2.70
2019-01-30T13:12:59.581Z,2.70
2019-01-30T13:15:28.851Z,2.70
2019-01-30T13:17:58.025Z,2.70
2019-01-30T13:20:27.091Z,2.70
2019-01-30T13:22:56.053Z,2.70
2019-01-30T13:25:28.026Z,2.60
2019-01-30T13:27:57.489Z,2.60
2019-01-30T13:30:32.010Z,2.70
2019-01-30T13:33:01.658Z,2.70
2019-01-30T13:35:31.034Z,2.80
2019-01-30T13:38:00.223Z,2.80
2019-01-30T13:40:37.095Z,2.70
2019-01-30T13:43:06.833Z,2.70
2019-01-30T13:45:36.033Z,2.70
2019-01-30T13:48:09.292Z,2.70
2019-01-30T13:50:38.399Z,2.70
2019-01-30T13:53:07.529Z,2.70
2019-01-30T13:55:38.640Z,2.70
2019-01-30T13:58:07.651Z,2.70
2019-01-30T14:00:37.482Z,2.60
2019-01-30T14:03:07.824Z,2.50
2019-01-30T14:05:37.729Z,2.40
2019-01-30T14:08:09.211Z,2.40
2019-01-30T14:10:38.385Z,2.40
2019-01-30T14:13:07.542Z,2.40
2019-01-30T14:15:36.729Z,2.30
2019-01-30T14:18:05.995Z,2.30
2019-01-30T14:20:35.239Z,2.30
2019-01-30T14:23:04.474Z,2.30
2019-01-30T14:25:33.577Z,2.30
2019-01-30T14:28:02.812Z,2.30
2019-01-30T14:30:34.459Z,2.20
2019-01-30T14:33:04.564Z,2.30
2019-01-30T14:35:36.862Z,2.30
2019-01-30T14:38:06.096Z,2.30
2019-01-30T14:40:35.413Z,2.40
2019-01-30T14:43:05.064Z,2.50
2019-01-30T14:45:34.285Z,2.50
2019-01-30T14:48:03.528Z,2.50
2019-01-30T14:50:32.802Z,2.50
2019-01-30T14:53:02.152Z,2.50
2019-01-30T14:55:31.436Z,2.50
2019-01-30T14:58:00.672Z,2.50
2019-01-30T15:00:31.754Z,2.30
2019-01-30T15:03:01.367Z,2.20
2019-01-30T15:05:31.285Z,2.10
2019-01-30T15:08:00.808Z,2.20
2019-01-30T15:10:30.364Z,2.20
2019-01-30T15:12:59.712Z,2.10
2019-01-30T15:15:30.813Z,2.00
2019-01-30T15:18:00.150Z,1.90
2019-01-30T15:20:31.447Z,1.80
2019-01-30T15:23:01.691Z,1.70
2019-01-30T15:25:31.001Z,1.60
2019-01-30T15:28:00.768Z,1.60
2019-01-30T15:30:35.338Z,1.60
2019-01-30T15:33:05.122Z,1.50
2019-01-30T15:35:35.197Z,1.40
2019-01-30T15:38:06.527Z,1.30
2019-01-30T15:40:36.335Z,1.30
2019-01-30T15:43:05.943Z,1.30
2019-01-30T15:45:35.208Z,1.30
2019-01-30T15:48:05.626Z,1.30
2019-01-30T15:50:36.516Z,1.30
2019-01-30T15:53:08.957Z,1.20
2019-01-30T15:55:38.210Z,1.20
2019-01-30T15:58:09.731Z,1.20
2019-01-30T16:00:47.974Z,1.20
2019-01-30T16:03:17.698Z,1.20
2019-01-30T16:05:47.090Z,1.20
2019-01-30T16:08:16.699Z,1.10
2019-01-30T16:10:45.752Z,1.10
2019-01-30T16:13:14.819Z,1.10
2019-01-30T16:15:46.934Z,1.00
2019-01-30T16:18:16.967Z,1.00
2019-01-30T16:20:46.247Z,1.00
2019-01-30T16:23:15.745Z,0.90
2019-01-30T16:25:45.383Z,0.90
2019-01-30T16:28:15.832Z,0.90
2019-01-30T16:30:45.918Z,0.80
2019-01-30T16:33:16.007Z,0.80
2019-01-30T16:35:55.825Z,0.80
2019-01-30T16:38:17.228Z,0.70
2019-01-30T16:40:47.223Z,0.70
2019-01-30T16:43:18.166Z,0.70
2019-01-30T16:45:50.633Z,0.60
2019-01-30T16:48:20.440Z,0.60
2019-01-30T16:50:51.161Z,0.60
2019-01-30T16:53:21.250Z,0.60
2019-01-30T16:55:52.037Z,0.50
2019-01-30T16:58:22.384Z,0.40
2019-01-30T17:00:52.017Z,0.30
2019-01-30T17:03:21.111Z,0.20
2019-01-30T17:05:50.745Z,0.10
2019-01-30T17:08:20.341Z,0.00
2019-01-30T17:10:50.894Z,0.00
2019-01-30T17:13:21.520Z,-0.10
2019-01-30T17:15:50.952Z,-0.10
2019-01-30T17:18:24.179Z,-0.10
2019-01-30T17:20:53.313Z,-0.10
2019-01-30T17:23:24.507Z,-0.20
2019-01-30T17:25:57.038Z,-0.10
2019-01-30T17:28:26.468Z,-0.20
2019-01-30T17:31:03.633Z,-0.20
2019-01-30T17:33:35.315Z,-0.10
2019-01-30T17:36:06.259Z,-0.10
2019-01-30T17:38:38.083Z,0.00
2019-01-30T17:41:07.753Z,0.10
2019-01-30T17:43:38.159Z,0.10
2019-01-30T17:46:08.245Z,0.10
2019-01-30T17:48:38.432Z,0.10
2019-01-30T17:51:09.123Z,0.10
2019-01-30T17:53:39.449Z,0.10
2019-01-30T17:56:10.661Z,0.00
2019-01-30T17:58:41.022Z,0.00
2019-01-30T18:01:12.316Z,-0.10
2019-01-30T18:03:43.356Z,-0.10
2019-01-30T18:06:14.581Z,-0.20
2019-01-30T18:08:46.419Z,-0.20
2019-01-30T18:11:17.064Z,-0.30
2019-01-30T18:13:48.141Z,-0.30
2019-01-30T18:16:18.326Z,-0.40
2019-01-30T18:18:50.255Z,-0.40
2019-01-30T18:21:23.157Z,-0.40
2019-01-30T18:23:54.609Z,-0.40
2019-01-30T18:26:26.981Z,-0.50
2019-01-30T18:28:59.547Z,-0.50
2019-01-30T18:31:30.778Z,-0.60
2019-01-30T18:34:01.839Z,-0.60
2019-01-30T18:36:40.813Z,-0.70
2019-01-30T18:39:09.749Z,-0.80
2019-01-30T18:41:43.270Z,-0.80
2019-01-30T18:44:15.649Z,-0.90
2019-01-30T18:46:47.849Z,-0.90
2019-01-30T18:49:19.689Z,-0.90
2019-01-30T18:51:49.155Z,-0.90
2019-01-30T18:54:19.896Z,-0.90
2019-01-30T18:56:51.806Z,-0.90
2019-01-30T18:59:23.214Z,-0.90
2019-01-30T19:01:54.659Z,-0.90
2019-01-30T19:04:26.683Z,-0.90
2019-01-30T19:06:58.461Z,-1.00
2019-01-30T19:09:31.173Z,-1.00
2019-01-30T19:12:03.758Z,-1.00
2019-01-30T19:14:34.245Z,-1.10
2019-01-30T19:17:05.918Z,-1.10
2019-01-30T19:19:37.205Z,-1.20
2019-01-30T19:22:10.328Z,-1.20
2019-01-30T19:24:42.992Z,-1.20
2019-01-30T19:27:15.874Z,-1.20
2019-01-30T19:29:47.815Z,-1.30
2019-01-30T19:32:20.952Z,-1.30
2019-01-30T19:34:53.607Z,-1.40
2019-01-30T19:37:27.082Z,-1.40
2019-01-30T19:39:59.307Z,-1.50
2019-01-30T19:42:32.697Z,-1.50
2019-01-30T19:45:06.710Z,-1.50
2019-01-30T19:47:39.568Z,-1.50
2019-01-30T19:50:15.986Z,-1.50
2019-01-30T19:52:49.977Z,-1.50
2019-01-30T19:55:24.681Z,-1.40
2019-01-30T19:57:57.749Z,-1.40
2019-01-30T20:00:36.997Z,-1.30
2019-01-30T20:03:21.809Z,-1.30
2019-01-30T20:05:55.953Z,-1.30
2019-01-30T20:08:29.078Z,-1.40
2019-01-30T20:11:02.429Z,-1.30
2019-01-30T20:13:36.909Z,-1.30
2019-01-30T20:16:11.082Z,-1.30
2019-01-30T20:18:43.571Z,-1.30
2019-01-30T20:21:16.119Z,-1.30
2019-01-30T20:23:48.477Z,-1.30
2019-01-30T20:26:20.689Z,-1.30
2019-01-30T20:28:52.635Z,-1.20
2019-01-30T20:31:25.291Z,-1.20
2019-01-30T20:33:57.301Z,-1.20
2019-01-30T20:36:29.781Z,-1.20
2019-01-30T20:39:02.619Z,-1.20
2019-01-30T20:41:34.864Z,-1.30
2019-01-30T20:44:06.882Z,-1.30
2019-01-30T20:46:39.263Z,-1.30
2019-01-30T20:49:11.491Z,-1.30
2019-01-30T20:51:43.426Z,-1.30
2019-01-30T20:54:15.202Z,-1.30
2019-01-30T20:56:48.101Z,-1.40
2019-01-30T20:59:20.641Z,-1.40
2019-01-30T21:01:53.283Z,-1.40
2019-01-30T21:04:24.974Z,-1.40
2019-01-30T21:06:57.500Z,-1.40
2019-01-30T21:09:28.851Z,-1.40
2019-01-30T21:12:00.519Z,-1.50
2019-01-30T21:14:32.095Z,-1.50
2019-01-30T21:17:03.668Z,-1.50
2019-01-30T21:19:35.384Z,-1.50
2019-01-30T21:22:07.560Z,-1.50
2019-01-30T21:24:38.934Z,-1.50
2019-01-30T21:27:10.360Z,-1.50
2019-01-30T21:29:41.785Z,-1.40
2019-01-30T21:32:13.311Z,-1.40
2019-01-30T21:34:44.373Z,-1.50
2019-01-30T21:37:15.118Z,-1.40
2019-01-30T21:39:47.286Z,-1.40
2019-01-30T21:42:17.239Z,-1.40
2019-01-30T21:44:47.639Z,-1.40
2019-01-30T21:47:18.698Z,-1.30
2019-01-30T21:49:50.770Z,-1.40
2019-01-30T21:52:21.497Z,-1.40
2019-01-30T21:54:52.212Z,-1.40
2019-01-30T21:57:22.724Z,-1.40
2019-01-30T21:59:53.223Z,-1.50
2019-01-30T22:02:23.062Z,-1.50
2019-01-30T22:04:52.834Z,-1.40
2019-01-30T22:07:23.275Z,-1.40
2019-01-30T22:09:53.720Z,-1.50
2019-01-30T22:12:24.994Z,-1.50
2019-01-30T22:14:54.661Z,-1.50
2019-01-30T22:17:25.274Z,-1.50
2019-01-30T22:19:57.196Z,-1.60
2019-01-30T22:22:29.331Z,-1.50
2019-01-30T22:24:58.310Z,-1.60
2019-01-30T22:27:28.854Z,-1.60
2019-01-30T22:29:58.058Z,-1.60
2019-01-30T22:32:27.240Z,-1.60
2019-01-30T22:34:56.537Z,-1.60
2019-01-30T22:37:26.107Z,-1.50
2019-01-30T22:39:55.513Z,-1.50
2019-01-30T22:42:26.144Z,-1.50
2019-01-30T22:44:55.161Z,-1.50
2019-01-30T22:47:24.385Z,-1.40
2019-01-30T22:49:53.530Z,-1.40
2019-01-30T22:52:22.693Z,-1.30
2019-01-30T22:54:52.281Z,-1.30
2019-01-30T22:57:21.372Z,-1.40
2019-01-30T22:59:50.798Z,-1.40
2019-01-30T23:02:21.157Z,-1.40
2019-01-30T23:05:03.347Z,-1.40
2019-01-30T23:07:50.307Z,-1.40
2019-01-30T23:11:03.884Z,-1.40
2019-01-30T23:13:47.359Z,-1.40
2019-01-30T23:17:12.801Z,-1.40
2019-01-30T23:20:17.888Z,-1.30
2019-01-30T23:23:19.892Z,-1.40
2019-01-30T23:26:22.586Z,-1.40
2019-01-30T23:29:27.496Z,-1.40
2019-01-30T23:32:05.276Z,-1.50
2019-01-30T23:35:13.601Z,-1.60
2019-01-30T23:37:52.939Z,-1.60
2019-01-30T23:40:46.603Z,-1.60
2019-01-30T23:43:46.376Z,-1.60
2019-01-30T23:46:38.081Z,-1.60
2019-01-30T23:49:24.037Z,-1.70
2019-01-30T23:52:12.159Z,-1.70
2019-01-30T23:54:52.439Z,-1.70
2019-01-30T23:57:52.848Z,-1.70
